sensor_id;sensor_type;location;lat;lon;timestamp;temperature;humidity
13856;DHT22;6998;53.608;9.958;2022-12-10T02:24:49;0.50;99.90
13856;DHT22;6998;53.608;9.958;2022-12-10T02:31:26;0.50;99.90
13856;DHT22;6998;53.608;9.958;2022-12-10T02:34:03;0.60;99.90
13856;DHT22;6998;53.608;9.958;2022-12-10T02:36:48;0.50;99.90
13856;DHT22;6998;53.608;9.958;2022-12-10T02:42:47;0.60;99.90
13856;DHT22;6998;53.608;9.958;2022-12-10T02:51:51;0.60;99.90
13856;DHT22;6998;53.608;9.958;2022-12-10T03:01:25;0.60;99.90
13856;DHT22;6998;53.608;9.958;2022-12-10T03:14:35;0.70;99.90
13856;DHT22;6998;53.608;9.958;2022-12-10T03:17:04;0.60;99.90
13856;DHT22;6998;53.608;9.958;2022-12-10T03:19:35;0.50;99.90
13856;DHT22;6998;53.608;9.958;2022-12-10T03:22:05;0.50;99.90
13856;DHT22;6998;53.608;9.958;2022-12-10T03:24:35;0.50;99.90
13856;DHT22;6998;53.608;9.958;2022-12-10T03:27:03;0.50;99.90
13856;DHT22;6998;53.608;9.958;2022-12-10T03:29:35;0.50;99.90
13856;DHT22;6998;53.608;9.958;2022-12-10T03:32:04;0.50;99.90
13856;DHT22;6998;53.608;9.958;2022-12-10T03:34:32;0.50;99.90
13856;DHT22;6998;53.608;9.958;2022-12-10T03:37:00;0.40;99.90
13856;DHT22;6998;53.608;9.958;2022-12-10T03:39:27;0.40;99.90
13856;DHT22;6998;53.608;9.958;2022-12-10T03:41:54;0.40;99.90
13856;DHT22;6998;53.608;9.958;2022-12-10T05:21:05;0.50;99.90
13856;DHT22;6998;53.608;9.958;2022-12-10T05:23:47;0.50;99.90
13856;DHT22;6998;53.608;9.958;2022-12-10T05:27:16;0.50;99.90
13856;DHT22;6998;53.608;9.958;2022-12-10T05:33:58;0.40;99.90
13856;DHT22;6998;53.608;9.958;2022-12-10T08:23:24;0.20;99.90
13856;DHT22;6998;53.608;9.958;2022-12-10T08:26:48;0.10;99.90
13856;DHT22;6998;53.608;9.958;2022-12-10T08:29:58;0.20;99.90
13856;DHT22;6998;53.608;9.958;2022-12-10T09:23:20;0.50;99.90
13856;DHT22;6998;53.608;9.958;2022-12-10T09:35:40;0.50;99.90
13856;DHT22;6998;53.608;9.958;2022-12-10T09:38:08;0.50;99.90
13856;DHT22;6998;53.608;9.958;2022-12-10T09:40:46;0.40;99.90
13856;DHT22;6998;53.608;9.958;2022-12-10T09:43:21;0.50;99.90
13856;DHT22;6998;53.608;9.958;2022-12-10T09:45:58;0.60;99.90
13856;DHT22;6998;53.608;9.958;2022-12-10T09:48:37;0.60;99.90
13856;DHT22;6998;53.608;9.958;2022-12-10T09:51:31;0.50;99.90
13856;DHT22;6998;53.608;9.958;2022-12-10T09:54:09;0.50;99.90
13856;DHT22;6998;53.608;9.958;2022-12-10T09:57:21;0.40;99.90
13856;DHT22;6998;53.608;9.958;2022-12-10T10:00:18;0.30;99.90
13856;DHT22;6998;53.608;9.958;2022-12-10T10:03:24;0.20;99.90
13856;DHT22;6998;53.608;9.958;2022-12-10T10:06:03;0.20;99.90
13856;DHT22;6998;53.608;9.958;2022-12-10T10:08:35;0.10;99.90
13856;DHT22;6998;53.608;9.958;2022-12-10T10:11:09;0.20;99.90
13856;DHT22;6998;53.608;9.958;2022-12-10T10:13:49;0.30;99.90
13856;DHT22;6998;53.608;9.958;2022-12-10T10:16:24;0.40;99.90
13856;DHT22;6998;53.608;9.958;2022-12-10T10:18:59;0.40;99.90
13856;DHT22;6998;53.608;9.958;2022-12-10T10:21:29;0.50;99.90
13856;DHT22;6998;53.608;9.958;2022-12-10T10:23:57;0.50;99.90
13856;DHT22;6998;53.608;9.958;2022-12-10T10:26:28;0.40;99.90
13856;DHT22;6998;53.608;9.958;2022-12-10T10:29:02;0.40;99.90
13856;DHT22;6998;53.608;9.958;2022-12-10T10:31:33;0.40;99.90
13856;DHT22;6998;53.608;9.958;2022-12-10T10:34:05;0.50;99.90
13856;DHT22;6998;53.608;9.958;2022-12-10T10:36:34;0.50;99.90
13856;DHT22;6998;53.608;9.958;2022-12-10T10:39:08;0.50;99.90
13856;DHT22;6998;53.608;9.958;2022-12-10T10:41:37;0.30;99.90
13856;DHT22;6998;53.608;9.958;2022-12-10T10:44:13;0.30;99.90
13856;DHT22;6998;53.608;9.958;2022-12-10T10:46:42;0.20;99.90
13856;DHT22;6998;53.608;9.958;2022-12-10T10:49:22;0.20;99.90
13856;DHT22;6998;53.608;9.958;2022-12-10T10:51:50;0.30;99.90
13856;DHT22;6998;53.608;9.958;2022-12-10T10:54:43;0.40;99.90
13856;DHT22;6998;53.608;9.958;2022-12-10T10:57:23;0.50;99.90
13856;DHT22;6998;53.608;9.958;2022-12-10T10:59:56;0.50;99.90
13856;DHT22;6998;53.608;9.958;2022-12-10T11:02:33;0.60;99.90
13856;DHT22;6998;53.608;9.958;2022-12-10T11:05:24;0.60;99.90
13856;DHT22;6998;53.608;9.958;2022-12-10T11:08:15;0.60;99.90
13856;DHT22;6998;53.608;9.958;2022-12-10T11:11:16;0.60;99.90
13856;DHT22;6998;53.608;9.958;2022-12-10T11:13:47;0.60;99.90
13856;DHT22;6998;53.608;9.958;2022-12-10T11:16:40;0.40;99.90
13856;DHT22;6998;53.608;9.958;2022-12-10T11:19:18;0.30;99.90
13856;DHT22;6998;53.608;9.958;2022-12-10T11:21:50;0.10;99.90
13856;DHT22;6998;53.608;9.958;2022-12-10T11:24:21;0.20;99.90
13856;DHT22;6998;53.608;9.958;2022-12-10T11:27:00;0.10;99.90
13856;DHT22;6998;53.608;9.958;2022-12-10T11:29:41;0.00;99.90
13856;DHT22;6998;53.608;9.958;2022-12-10T11:32:30;0.00;99.90
13856;DHT22;6998;53.608;9.958;2022-12-10T11:35:19;0.00;99.90
13856;DHT22;6998;53.608;9.958;2022-12-10T11:37:55;-0.10;99.90
13856;DHT22;6998;53.608;9.958;2022-12-10T11:40:30;0.00;99.90
13856;DHT22;6998;53.608;9.958;2022-12-10T11:43:24;0.00;99.90
13856;DHT22;6998;53.608;9.958;2022-12-10T11:46:04;0.10;99.90
13856;DHT22;6998;53.608;9.958;2022-12-10T11:48:55;0.10;99.90
13856;DHT22;6998;53.608;9.958;2022-12-10T11:51:34;0.20;99.90
13856;DHT22;6998;53.608;9.958;2022-12-10T11:54:13;0.20;99.90
13856;DHT22;6998;53.608;9.958;2022-12-10T11:56:47;0.20;99.90
13856;DHT22;6998;53.608;9.958;2022-12-10T11:59:20;0.00;99.90
13856;DHT22;6998;53.608;9.958;2022-12-10T12:02:03;0.00;99.90
13856;DHT22;6998;53.608;9.958;2022-12-10T12:04:50;0.20;99.90
13856;DHT22;6998;53.608;9.958;2022-12-10T12:07:36;0.10;99.90
13856;DHT22;6998;53.608;9.958;2022-12-10T12:10:27;-0.10;99.90
13856;DHT22;6998;53.608;9.958;2022-12-10T12:13:00;0.00;99.90
13856;DHT22;6998;53.608;9.958;2022-12-10T12:15:32;0.10;99.90
13856;DHT22;6998;53.608;9.958;2022-12-10T12:18:04;0.30;99.90
13856;DHT22;6998;53.608;9.958;2022-12-10T12:20:37;0.40;99.90
13856;DHT22;6998;53.608;9.958;2022-12-10T12:23:14;0.50;99.90
13856;DHT22;6998;53.608;9.958;2022-12-10T12:25:47;0.70;99.90
13856;DHT22;6998;53.608;9.958;2022-12-10T12:28:20;0.80;99.90
13856;DHT22;6998;53.608;9.958;2022-12-10T12:30:53;0.80;99.90
13856;DHT22;6998;53.608;9.958;2022-12-10T12:33:29;0.80;99.90
13856;DHT22;6998;53.608;9.958;2022-12-10T12:36:30;0.60;99.90
13856;DHT22;6998;53.608;9.958;2022-12-10T12:39:23;0.50;99.90
13856;DHT22;6998;53.608;9.958;2022-12-10T12:42:26;0.20;99.90
13856;DHT22;6998;53.608;9.958;2022-12-10T12:45:32;0.20;99.90
13856;DHT22;6998;53.608;9.958;2022-12-10T12:48:32;0.20;99.90
13856;DHT22;6998;53.608;9.958;2022-12-10T12:51:08;0.10;99.90
13856;DHT22;6998;53.608;9.958;2022-12-10T12:53:37;0.10;99.90
13856;DHT22;6998;53.608;9.958;2022-12-10T12:56:17;0.10;99.90
13856;DHT22;6998;53.608;9.958;2022-12-10T12:58:55;0.00;99.90
13856;DHT22;6998;53.608;9.958;2022-12-10T13:01:28;0.00;99.90
13856;DHT22;6998;53.608;9.958;2022-12-10T13:03:59;0.10;99.90
13856;DHT22;6998;53.608;9.958;2022-12-10T13:06:28;0.10;99.90
13856;DHT22;6998;53.608;9.958;2022-12-10T13:09:24;0.20;99.90
13856;DHT22;6998;53.608;9.958;2022-12-10T13:12:16;0.30;99.90
13856;DHT22;6998;53.608;9.958;2022-12-10T13:15:13;0.50;99.90
13856;DHT22;6998;53.608;9.958;2022-12-10T13:18:04;0.50;99.90
13856;DHT22;6998;53.608;9.958;2022-12-10T13:20:41;0.60;99.90
13856;DHT22;6998;53.608;9.958;2022-12-10T13:23:31;0.60;99.90
13856;DHT22;6998;53.608;9.958;2022-12-10T13:29:46;0.60;99.90
13856;DHT22;6998;53.608;9.958;2022-12-10T13:33:04;0.40;99.90
13856;DHT22;6998;53.608;9.958;2022-12-10T13:35:48;0.30;99.90
13856;DHT22;6998;53.608;9.958;2022-12-10T13:38:22;0.00;99.90
13856;DHT22;6998;53.608;9.958;2022-12-10T13:41:05;0.00;99.90
13856;DHT22;6998;53.608;9.958;2022-12-10T13:43:55;0.00;99.90
13856;DHT22;6998;53.608;9.958;2022-12-10T13:47:03;0.00;99.90
13856;DHT22;6998;53.608;9.958;2022-12-10T13:49:47;0.10;99.90
13856;DHT22;6998;53.608;9.958;2022-12-10T13:52:21;0.10;99.90
13856;DHT22;6998;53.608;9.958;2022-12-10T13:58:25;0.20;99.90
13856;DHT22;6998;53.608;9.958;2022-12-10T14:00:58;0.00;99.90
13856;DHT22;6998;53.608;9.958;2022-12-10T14:06:32;-0.10;99.90
13856;DHT22;6998;53.608;9.958;2022-12-10T14:09:05;-0.10;99.90
13856;DHT22;6998;53.608;9.958;2022-12-10T14:11:35;-0.10;99.90
13856;DHT22;6998;53.608;9.958;2022-12-10T14:14:09;-0.10;99.90
13856;DHT22;6998;53.608;9.958;2022-12-10T14:16:40;-0.10;99.90
13856;DHT22;6998;53.608;9.958;2022-12-10T14:19:12;-0.10;99.90
13856;DHT22;6998;53.608;9.958;2022-12-10T14:21:43;0.00;99.90
13856;DHT22;6998;53.608;9.958;2022-12-10T14:24:27;-0.10;99.90
13856;DHT22;6998;53.608;9.958;2022-12-10T14:26:58;-0.30;99.90
13856;DHT22;6998;53.608;9.958;2022-12-10T14:29:28;-0.30;99.90
13856;DHT22;6998;53.608;9.958;2022-12-10T14:31:55;-0.30;99.90
13856;DHT22;6998;53.608;9.958;2022-12-10T14:34:29;-0.20;99.90
13856;DHT22;6998;53.608;9.958;2022-12-10T14:37:12;-0.30;99.90
13856;DHT22;6998;53.608;9.958;2022-12-10T14:39:55;-0.20;99.90
13856;DHT22;6998;53.608;9.958;2022-12-10T14:43:09;-0.20;99.90
13856;DHT22;6998;53.608;9.958;2022-12-10T14:46:00;-0.20;99.90
13856;DHT22;6998;53.608;9.958;2022-12-10T14:48:53;-0.20;99.90
13856;DHT22;6998;53.608;9.958;2022-12-10T14:51:42;-0.20;99.90
13856;DHT22;6998;53.608;9.958;2022-12-10T14:54:37;-0.20;99.90
13856;DHT22;6998;53.608;9.958;2022-12-10T14:57:21;-0.30;99.90
13856;DHT22;6998;53.608;9.958;2022-12-10T14:59:52;-0.20;99.90
13856;DHT22;6998;53.608;9.958;2022-12-10T15:02:35;-0.20;99.90
13856;DHT22;6998;53.608;9.958;2022-12-10T15:05:10;-0.20;99.90
13856;DHT22;6998;53.608;9.958;2022-12-10T15:07:52;-0.20;99.90
13856;DHT22;6998;53.608;9.958;2022-12-10T15:10:33;-0.20;99.90
13856;DHT22;6998;53.608;9.958;2022-12-10T15:13:06;-0.10;99.90
13856;DHT22;6998;53.608;9.958;2022-12-10T15:15:39;-0.10;99.90
13856;DHT22;6998;53.608;9.958;2022-12-10T15:18:15;-0.10;99.90
13856;DHT22;6998;53.608;9.958;2022-12-10T15:20:47;-0.10;99.90
13856;DHT22;6998;53.608;9.958;2022-12-10T15:23:30;-0.10;99.90
13856;DHT22;6998;53.608;9.958;2022-12-10T15:26:10;-0.10;99.90
13856;DHT22;6998;53.608;9.958;2022-12-10T15:28:41;-0.20;99.90
13856;DHT22;6998;53.608;9.958;2022-12-10T15:31:13;-0.20;99.90
13856;DHT22;6998;53.608;9.958;2022-12-10T15:33:44;-0.10;99.90
13856;DHT22;6998;53.608;9.958;2022-12-10T15:36:23;-0.20;99.90
13856;DHT22;6998;53.608;9.958;2022-12-10T15:39:03;-0.20;99.90
13856;DHT22;6998;53.608;9.958;2022-12-10T15:41:47;-0.10;99.90
13856;DHT22;6998;53.608;9.958;2022-12-10T15:44:26;-0.20;99.90
13856;DHT22;6998;53.608;9.958;2022-12-10T15:47:00;-0.20;99.90
13856;DHT22;6998;53.608;9.958;2022-12-10T15:49:41;-0.30;99.90
13856;DHT22;6998;53.608;9.958;2022-12-10T15:52:10;-0.20;99.90
13856;DHT22;6998;53.608;9.958;2022-12-10T15:54:44;-0.20;99.90
13856;DHT22;6998;53.608;9.958;2022-12-10T15:57:15;-0.40;99.90
13856;DHT22;6998;53.608;9.958;2022-12-10T15:59:46;-0.40;99.90
13856;DHT22;6998;53.608;9.958;2022-12-10T16:02:28;-0.40;99.90
13856;DHT22;6998;53.608;9.958;2022-12-10T16:05:01;-0.40;99.90
13856;DHT22;6998;53.608;9.958;2022-12-10T16:07:35;-0.40;99.90
13856;DHT22;6998;53.608;9.958;2022-12-10T16:10:06;-0.40;99.90
13856;DHT22;6998;53.608;9.958;2022-12-10T16:12:36;-0.40;99.90
13856;DHT22;6998;53.608;9.958;2022-12-10T16:15:06;-0.40;99.90
13856;DHT22;6998;53.608;9.958;2022-12-10T16:17:34;-0.40;99.90
13856;DHT22;6998;53.608;9.958;2022-12-10T16:20:18;-0.40;99.90
13856;DHT22;6998;53.608;9.958;2022-12-10T16:22:45;-0.40;99.90
13856;DHT22;6998;53.608;9.958;2022-12-10T16:25:12;-0.40;99.90
13856;DHT22;6998;53.608;9.958;2022-12-10T16:27:41;-0.50;99.90
13856;DHT22;6998;53.608;9.958;2022-12-10T16:30:13;-0.60;99.90
13856;DHT22;6998;53.608;9.958;2022-12-10T16:32:41;-0.60;99.90
13856;DHT22;6998;53.608;9.958;2022-12-10T16:35:17;-0.50;99.90
13856;DHT22;6998;53.608;9.958;2022-12-10T16:37:46;-0.40;99.90
13856;DHT22;6998;53.608;9.958;2022-12-10T16:40:16;-0.40;99.90
13856;DHT22;6998;53.608;9.958;2022-12-10T16:42:45;-0.40;99.90
13856;DHT22;6998;53.608;9.958;2022-12-10T16:45:15;-0.50;99.90
13856;DHT22;6998;53.608;9.958;2022-12-10T16:47:44;-0.50;99.90
13856;DHT22;6998;53.608;9.958;2022-12-10T16:50:14;-0.50;99.90
13856;DHT22;6998;53.608;9.958;2022-12-10T16:52:41;-0.50;99.90
13856;DHT22;6998;53.608;9.958;2022-12-10T16:55:12;-0.50;99.90
13856;DHT22;6998;53.608;9.958;2022-12-10T16:57:39;-0.50;99.90
13856;DHT22;6998;53.608;9.958;2022-12-10T17:00:13;-0.50;99.90
13856;DHT22;6998;53.608;9.958;2022-12-10T17:02:44;-0.50;99.90
13856;DHT22;6998;53.608;9.958;2022-12-10T17:05:15;-0.40;99.90
13856;DHT22;6998;53.608;9.958;2022-12-10T17:07:45;-0.50;99.90
13856;DHT22;6998;53.608;9.958;2022-12-10T17:10:12;-0.40;99.90
13856;DHT22;6998;53.608;9.958;2022-12-10T17:12:41;-0.40;99.90
13856;DHT22;6998;53.608;9.958;2022-12-10T17:15:11;-0.40;99.90
13856;DHT22;6998;53.608;9.958;2022-12-10T17:17:38;-0.40;99.90
13856;DHT22;6998;53.608;9.958;2022-12-10T17:20:15;-0.40;99.90
13856;DHT22;6998;53.608;9.958;2022-12-10T17:22:42;-0.40;99.90
13856;DHT22;6998;53.608;9.958;2022-12-10T17:25:09;-0.40;99.90
13856;DHT22;6998;53.608;9.958;2022-12-10T17:27:36;-0.40;99.90
13856;DHT22;6998;53.608;9.958;2022-12-10T17:30:04;-0.40;99.90
13856;DHT22;6998;53.608;9.958;2022-12-10T17:32:34;-0.40;99.90
13856;DHT22;6998;53.608;9.958;2022-12-10T17:35:02;-0.50;99.90
13856;DHT22;6998;53.608;9.958;2022-12-10T17:37:31;-0.50;99.90
13856;DHT22;6998;53.608;9.958;2022-12-10T17:40:05;-0.50;99.90
13856;DHT22;6998;53.608;9.958;2022-12-10T17:42:37;-0.50;99.90
13856;DHT22;6998;53.608;9.958;2022-12-10T17:45:05;-0.50;99.90
13856;DHT22;6998;53.608;9.958;2022-12-10T17:47:34;-0.60;99.90
13856;DHT22;6998;53.608;9.958;2022-12-10T17:50:03;-0.60;99.90
13856;DHT22;6998;53.608;9.958;2022-12-10T17:52:30;-0.60;99.90
13856;DHT22;6998;53.608;9.958;2022-12-10T17:54:58;-0.60;99.90
13856;DHT22;6998;53.608;9.958;2022-12-10T17:57:27;-0.70;99.90
13856;DHT22;6998;53.608;9.958;2022-12-10T17:59:54;-0.60;99.90
13856;DHT22;6998;53.608;9.958;2022-12-10T18:02:21;-0.70;99.90
13856;DHT22;6998;53.608;9.958;2022-12-10T18:04:50;-0.70;99.90
13856;DHT22;6998;53.608;9.958;2022-12-10T18:07:19;-0.70;99.90
13856;DHT22;6998;53.608;9.958;2022-12-10T18:09:46;-0.70;99.90
13856;DHT22;6998;53.608;9.958;2022-12-10T18:12:14;-0.60;99.90
13856;DHT22;6998;53.608;9.958;2022-12-10T18:14:48;-0.70;99.90
13856;DHT22;6998;53.608;9.958;2022-12-10T18:17:29;-0.70;99.90
13856;DHT22;6998;53.608;9.958;2022-12-10T18:20:00;-0.70;99.90
13856;DHT22;6998;53.608;9.958;2022-12-10T18:22:29;-0.60;99.90
13856;DHT22;6998;53.608;9.958;2022-12-10T18:24:57;-0.60;99.90
13856;DHT22;6998;53.608;9.958;2022-12-10T18:27:25;-0.60;99.90
13856;DHT22;6998;53.608;9.958;2022-12-10T18:29:51;-0.60;99.90
13856;DHT22;6998;53.608;9.958;2022-12-10T18:32:18;-0.60;99.90
13856;DHT22;6998;53.608;9.958;2022-12-10T18:34:45;-0.70;99.90
13856;DHT22;6998;53.608;9.958;2022-12-10T18:37:15;-0.80;99.90
13856;DHT22;6998;53.608;9.958;2022-12-10T18:39:42;-0.70;99.90
13856;DHT22;6998;53.608;9.958;2022-12-10T18:42:08;-0.70;99.90
13856;DHT22;6998;53.608;9.958;2022-12-10T18:44:35;-0.80;99.90
13856;DHT22;6998;53.608;9.958;2022-12-10T18:47:04;-0.80;99.90
13856;DHT22;6998;53.608;9.958;2022-12-10T18:49:32;-0.80;99.90
13856;DHT22;6998;53.608;9.958;2022-12-10T18:52:01;-0.80;99.90
13856;DHT22;6998;53.608;9.958;2022-12-10T18:54:29;-0.90;99.90
13856;DHT22;6998;53.608;9.958;2022-12-10T18:56:56;-0.90;99.90
13856;DHT22;6998;53.608;9.958;2022-12-10T18:59:22;-0.90;99.90
13856;DHT22;6998;53.608;9.958;2022-12-10T19:01:49;-1.00;99.90
13856;DHT22;6998;53.608;9.958;2022-12-10T19:04:16;-1.10;99.90
13856;DHT22;6998;53.608;9.958;2022-12-10T19:06:44;-1.10;99.90
13856;DHT22;6998;53.608;9.958;2022-12-10T19:09:17;-1.10;99.90
13856;DHT22;6998;53.608;9.958;2022-12-10T19:11:47;-1.10;99.90
13856;DHT22;6998;53.608;9.958;2022-12-10T19:14:16;-1.10;99.90
13856;DHT22;6998;53.608;9.958;2022-12-10T19:16:44;-1.00;99.90
13856;DHT22;6998;53.608;9.958;2022-12-10T19:19:11;-1.00;99.90
13856;DHT22;6998;53.608;9.958;2022-12-10T19:21:38;-1.00;99.90
13856;DHT22;6998;53.608;9.958;2022-12-10T19:24:06;-1.00;99.90
13856;DHT22;6998;53.608;9.958;2022-12-10T19:26:35;-1.00;99.90
13856;DHT22;6998;53.608;9.958;2022-12-10T19:29:10;-0.90;99.90
13856;DHT22;6998;53.608;9.958;2022-12-10T19:31:38;-1.00;99.90
13856;DHT22;6998;53.608;9.958;2022-12-10T19:34:05;-0.90;99.90
13856;DHT22;6998;53.608;9.958;2022-12-10T19:36:31;-0.90;99.90
13856;DHT22;6998;53.608;9.958;2022-12-10T19:39:01;-0.90;99.90
13856;DHT22;6998;53.608;9.958;2022-12-10T19:41:30;-0.90;99.90
13856;DHT22;6998;53.608;9.958;2022-12-10T19:43:57;-0.90;99.90
13856;DHT22;6998;53.608;9.958;2022-12-10T19:46:26;-0.90;99.90
13856;DHT22;6998;53.608;9.958;2022-12-10T19:48:53;-0.80;99.90
13856;DHT22;6998;53.608;9.958;2022-12-10T19:51:20;-0.90;99.90
13856;DHT22;6998;53.608;9.958;2022-12-10T19:53:49;-0.90;99.90
13856;DHT22;6998;53.608;9.958;2022-12-10T19:56:21;-1.00;99.90
13856;DHT22;6998;53.608;9.958;2022-12-10T19:58:49;-1.00;99.90
13856;DHT22;6998;53.608;9.958;2022-12-10T20:01:17;-1.00;99.90
13856;DHT22;6998;53.608;9.958;2022-12-10T20:03:45;-1.00;99.90
13856;DHT22;6998;53.608;9.958;2022-12-10T20:06:13;-1.00;99.90
13856;DHT22;6998;53.608;9.958;2022-12-10T20:08:41;-0.90;99.90
13856;DHT22;6998;53.608;9.958;2022-12-10T20:11:08;-0.80;99.90
13856;DHT22;6998;53.608;9.958;2022-12-10T20:13:35;-0.80;99.90
13856;DHT22;6998;53.608;9.958;2022-12-10T20:16:02;-0.80;99.90
13856;DHT22;6998;53.608;9.958;2022-12-10T20:18:30;-0.90;99.90
13856;DHT22;6998;53.608;9.958;2022-12-10T20:20:58;-0.80;99.90
13856;DHT22;6998;53.608;9.958;2022-12-10T20:23:24;-0.80;99.90
13856;DHT22;6998;53.608;9.958;2022-12-10T20:25:55;-0.80;99.90
13856;DHT22;6998;53.608;9.958;2022-12-10T20:28:23;-0.90;99.90
13856;DHT22;6998;53.608;9.958;2022-12-10T20:30:52;-0.80;99.90
13856;DHT22;6998;53.608;9.958;2022-12-10T20:33:21;-0.70;99.90
13856;DHT22;6998;53.608;9.958;2022-12-10T20:35:49;-0.80;99.90
13856;DHT22;6998;53.608;9.958;2022-12-10T20:38:18;-0.80;99.90
13856;DHT22;6998;53.608;9.958;2022-12-10T20:40:45;-0.80;99.90
13856;DHT22;6998;53.608;9.958;2022-12-10T20:43:14;-0.80;99.90
13856;DHT22;6998;53.608;9.958;2022-12-10T20:45:41;-0.80;99.90
13856;DHT22;6998;53.608;9.958;2022-12-10T20:48:08;-0.90;99.90
13856;DHT22;6998;53.608;9.958;2022-12-10T20:50:35;-0.90;99.90
13856;DHT22;6998;53.608;9.958;2022-12-10T20:53:02;-0.90;99.90
13856;DHT22;6998;53.608;9.958;2022-12-10T20:55:30;-0.80;99.90
13856;DHT22;6998;53.608;9.958;2022-12-10T20:57:57;-0.70;99.90
13856;DHT22;6998;53.608;9.958;2022-12-10T21:00:24;-0.80;99.90
13856;DHT22;6998;53.608;9.958;2022-12-10T21:02:52;-0.90;99.90
13856;DHT22;6998;53.608;9.958;2022-12-10T21:05:20;-0.90;99.90
13856;DHT22;6998;53.608;9.958;2022-12-10T21:07:49;-0.90;99.90
13856;DHT22;6998;53.608;9.958;2022-12-10T21:10:17;-0.70;99.90
13856;DHT22;6998;53.608;9.958;2022-12-10T21:13:00;-0.80;99.90
13856;DHT22;6998;53.608;9.958;2022-12-10T21:15:27;-0.90;99.90
13856;DHT22;6998;53.608;9.958;2022-12-10T21:17:56;-0.80;99.90
13856;DHT22;6998;53.608;9.958;2022-12-10T21:20:23;-0.90;99.90
13856;DHT22;6998;53.608;9.958;2022-12-10T21:22:53;-0.90;99.90
13856;DHT22;6998;53.608;9.958;2022-12-10T21:25:20;-0.90;99.90
13856;DHT22;6998;53.608;9.958;2022-12-10T21:27:48;-0.80;99.90
13856;DHT22;6998;53.608;9.958;2022-12-10T21:30:17;-0.90;99.90
13856;DHT22;6998;53.608;9.958;2022-12-10T21:32:44;-0.80;99.90
13856;DHT22;6998;53.608;9.958;2022-12-10T21:35:12;-0.90;99.90
13856;DHT22;6998;53.608;9.958;2022-12-10T21:37:39;-0.80;99.90
13856;DHT22;6998;53.608;9.958;2022-12-10T21:40:06;-0.90;99.90
13856;DHT22;6998;53.608;9.958;2022-12-10T21:42:34;-0.90;99.90
13856;DHT22;6998;53.608;9.958;2022-12-10T21:45:28;-0.90;99.90
13856;DHT22;6998;53.608;9.958;2022-12-10T21:47:58;-0.90;99.90
13856;DHT22;6998;53.608;9.958;2022-12-10T21:50:27;-0.90;99.90
13856;DHT22;6998;53.608;9.958;2022-12-10T21:52:54;-1.00;99.90
13856;DHT22;6998;53.608;9.958;2022-12-10T21:55:22;-1.00;99.90
13856;DHT22;6998;53.608;9.958;2022-12-10T21:57:51;-1.00;99.90
13856;DHT22;6998;53.608;9.958;2022-12-10T22:00:18;-0.90;99.90
13856;DHT22;6998;53.608;9.958;2022-12-10T22:02:47;-0.90;99.90
13856;DHT22;6998;53.608;9.958;2022-12-10T22:05:14;-0.90;99.90
13856;DHT22;6998;53.608;9.958;2022-12-10T22:07:41;-0.90;99.90
13856;DHT22;6998;53.608;9.958;2022-12-10T22:10:10;-1.00;99.90
13856;DHT22;6998;53.608;9.958;2022-12-10T22:12:38;-1.00;99.90
13856;DHT22;6998;53.608;9.958;2022-12-10T22:15:06;-1.10;99.90
13856;DHT22;6998;53.608;9.958;2022-12-10T22:17:34;-1.10;99.90
13856;DHT22;6998;53.608;9.958;2022-12-10T22:20:06;-1.00;99.90
13856;DHT22;6998;53.608;9.958;2022-12-10T22:22:34;-1.10;99.90
13856;DHT22;6998;53.608;9.958;2022-12-10T22:25:01;-1.10;99.90
13856;DHT22;6998;53.608;9.958;2022-12-10T22:27:28;-1.10;99.90
13856;DHT22;6998;53.608;9.958;2022-12-10T22:29:58;-1.10;99.90
13856;DHT22;6998;53.608;9.958;2022-12-10T22:32:30;-1.10;99.90
13856;DHT22;6998;53.608;9.958;2022-12-10T22:34:57;-1.30;99.90
13856;DHT22;6998;53.608;9.958;2022-12-10T22:37:27;-1.20;99.90
13856;DHT22;6998;53.608;9.958;2022-12-10T22:39:57;-1.20;99.90
13856;DHT22;6998;53.608;9.958;2022-12-10T22:42:31;-1.10;99.90
13856;DHT22;6998;53.608;9.958;2022-12-10T22:44:58;-1.10;99.90
13856;DHT22;6998;53.608;9.958;2022-12-10T22:47:26;-1.00;99.90
13856;DHT22;6998;53.608;9.958;2022-12-10T22:49:55;-1.00;99.90
13856;DHT22;6998;53.608;9.958;2022-12-10T22:52:22;-1.00;99.90
13856;DHT22;6998;53.608;9.958;2022-12-10T22:54:54;-1.10;99.90
13856;DHT22;6998;53.608;9.958;2022-12-10T22:57:21;-1.10;99.90
13856;DHT22;6998;53.608;9.958;2022-12-10T22:59:50;-1.10;99.90
13856;DHT22;6998;53.608;9.958;2022-12-10T23:02:18;-1.10;99.90
13856;DHT22;6998;53.608;9.958;2022-12-10T23:04:47;-1.00;99.90
13856;DHT22;6998;53.608;9.958;2022-12-10T23:07:15;-1.00;99.90
13856;DHT22;6998;53.608;9.958;2022-12-10T23:09:42;-0.90;99.90
13856;DHT22;6998;53.608;9.958;2022-12-10T23:12:11;-1.00;99.90
13856;DHT22;6998;53.608;9.958;2022-12-10T23:14:55;-1.00;99.90
13856;DHT22;6998;53.608;9.958;2022-12-10T23:17:23;-1.10;99.90
13856;DHT22;6998;53.608;9.958;2022-12-10T23:19:53;-1.10;99.90
13856;DHT22;6998;53.608;9.958;2022-12-10T23:22:21;-1.20;99.90
13856;DHT22;6998;53.608;9.958;2022-12-10T23:24:48;-1.20;99.90
13856;DHT22;6998;53.608;9.958;2022-12-10T23:27:18;-1.20;99.90
13856;DHT22;6998;53.608;9.958;2022-12-10T23:29:46;-1.10;99.90
13856;DHT22;6998;53.608;9.958;2022-12-10T23:32:13;-1.10;99.90
13856;DHT22;6998;53.608;9.958;2022-12-10T23:34:42;-1.20;99.90
13856;DHT22;6998;53.608;9.958;2022-12-10T23:37:08;-1.20;99.90
13856;DHT22;6998;53.608;9.958;2022-12-10T23:39:36;-1.30;99.90
13856;DHT22;6998;53.608;9.958;2022-12-10T23:42:04;-1.30;99.90
13856;DHT22;6998;53.608;9.958;2022-12-10T23:44:33;-1.30;99.90
13856;DHT22;6998;53.608;9.958;2022-12-10T23:47:02;-1.30;99.90
13856;DHT22;6998;53.608;9.958;2022-12-10T23:49:37;-1.30;99.90
13856;DHT22;6998;53.608;9.958;2022-12-10T23:52:06;-1.30;99.90
13856;DHT22;6998;53.608;9.958;2022-12-10T23:54:33;-1.30;99.90
13856;DHT22;6998;53.608;9.958;2022-12-10T23:57:03;-1.30;99.90
13856;DHT22;6998;53.608;9.958;2022-12-10T23:59:30;-1.30;99.90
